Alyeska Resort
Max's Hourly Weather Roundup
ALYESKA_MAX 2/1/2015
Click Here for Graph

        DATE  TIME   Air  Wind  Wind  Wind  BATT   Rel
                    Temp   Spd   Dir  Gust  Volt  Hum%
                      F   MPH   AVG   MPH   AVG   AVG

    2/1/2015 02:00    34     3   181     6 12.91    30
    2/1/2015 01:00    33     2   222     4 12.92    30
   1/31/2015 24:00    33     2   209     5 12.93    31
   1/31/2015 23:00    33     5   292     6 12.95    31
   1/31/2015 22:00    33     4           5 12.96    29
   1/31/2015 21:00    33     3           5 12.98    29
   1/31/2015 20:00    32     3           5 13.00    28
   1/31/2015 19:00    32     2           5 13.04    28
   1/31/2015 18:00    32     2           3 13.14    28
   1/31/2015 17:00    33     2   188     4 13.69    27
   1/31/2015 16:00    34     2   150     5 13.72    27
   1/31/2015 15:00    34     5   238     6 13.69    27
   1/31/2015 14:00    36     3   146     5 13.65    27
   1/31/2015 13:00    33     4   199     6 13.64    32
   1/31/2015 12:00    33     2   155     7 13.67    28
   1/31/2015 11:00    32     2   155     5 13.79    31
   1/31/2015 10:00    29     2   224     5 13.14    40
   1/31/2015 09:00    30     4   203     6 12.85    41
   1/31/2015 08:00    29     2   252     5 12.86    51
   1/31/2015 07:00    28     2   169     4 12.87    54
   1/31/2015 06:00    28     2   220     5 12.88    54
   1/31/2015 05:00    28     2   209     5 12.88    57
   1/31/2015 04:00    29     4   137    10 12.89    50
   1/31/2015 03:00    29     4   115    13 12.90    57


Click Here for Graph